sensor_id;sensor_type;location;lat;lon;timestamp;P1;durP1;ratioP1;P2;durP2;ratioP2
60885;SDS011;46736;41.654;-8.438;2024-02-04T00:07:34;0.70;;;0.70;;
60885;SDS011;46736;41.654;-8.438;2024-02-04T00:09:36;0.70;;;0.70;;
60885;SDS011;46736;41.654;-8.438;2024-02-04T00:11:37;0.60;;;0.60;;
60885;SDS011;46736;41.654;-8.438;2024-02-04T00:13:38;0.70;;;0.70;;
60885;SDS011;46736;41.654;-8.438;2024-02-04T00:15:38;0.60;;;0.60;;
60885;SDS011;46736;41.654;-8.438;2024-02-04T00:17:39;0.70;;;0.70;;
60885;SDS011;46736;41.654;-8.438;2024-02-04T00:19:40;0.73;;;0.73;;
60885;SDS011;46736;41.654;-8.438;2024-02-04T00:21:40;0.70;;;0.70;;
60885;SDS011;46736;41.654;-8.438;2024-02-04T00:23:41;0.70;;;0.70;;
60885;SDS011;46736;41.654;-8.438;2024-02-04T00:25:41;0.80;;;0.80;;
60885;SDS011;46736;41.654;-8.438;2024-02-04T00:27:42;0.80;;;0.80;;
60885;SDS011;46736;41.654;-8.438;2024-02-04T00:32:06;0.73;;;0.73;;
60885;SDS011;46736;41.654;-8.438;2024-02-04T00:34:07;0.80;;;0.80;;
60885;SDS011;46736;41.654;-8.438;2024-02-04T00:36:08;0.70;;;0.70;;
60885;SDS011;46736;41.654;-8.438;2024-02-04T00:38:09;0.80;;;0.80;;
60885;SDS011;46736;41.654;-8.438;2024-02-04T00:40:10;0.70;;;0.70;;
60885;SDS011;46736;41.654;-8.438;2024-02-04T00:42:10;0.77;;;0.77;;
60885;SDS011;46736;41.654;-8.438;2024-02-04T00:44:14;0.77;;;0.77;;
60885;SDS011;46736;41.654;-8.438;2024-02-04T00:48:25;0.60;;;0.60;;
60885;SDS011;46736;41.654;-8.438;2024-02-04T00:50:27;0.70;;;0.70;;
60885;SDS011;46736;41.654;-8.438;2024-02-04T00:52:29;0.80;;;0.80;;
60885;SDS011;46736;41.654;-8.438;2024-02-04T00:54:31;0.70;;;0.70;;
60885;SDS011;46736;41.654;-8.438;2024-02-04T00:56:36;0.77;;;0.77;;
60885;SDS011;46736;41.654;-8.438;2024-02-04T00:58:38;0.70;;;0.70;;
60885;SDS011;46736;41.654;-8.438;2024-02-04T01:00:39;0.90;;;0.90;;
60885;SDS011;46736;41.654;-8.438;2024-02-04T01:04:53;0.80;;;0.80;;
60885;SDS011;46736;41.654;-8.438;2024-02-04T01:06:54;0.70;;;0.70;;
60885;SDS011;46736;41.654;-8.438;2024-02-04T01:08:56;0.80;;;0.80;;
60885;SDS011;46736;41.654;-8.438;2024-02-04T01:10:57;0.80;;;0.80;;
60885;SDS011;46736;41.654;-8.438;2024-02-04T01:12:58;0.90;;;0.90;;
60885;SDS011;46736;41.654;-8.438;2024-02-04T01:14:59;0.90;;;0.90;;
60885;SDS011;46736;41.654;-8.438;2024-02-04T01:17:00;0.80;;;0.80;;
60885;SDS011;46736;41.654;-8.438;2024-02-04T01:19:01;0.80;;;0.80;;
60885;SDS011;46736;41.654;-8.438;2024-02-04T01:21:01;0.90;;;0.90;;
60885;SDS011;46736;41.654;-8.438;2024-02-04T01:23:02;0.80;;;0.80;;
60885;SDS011;46736;41.654;-8.438;2024-02-04T01:25:03;0.70;;;0.70;;
60885;SDS011;46736;41.654;-8.438;2024-02-04T01:27:04;0.80;;;0.80;;
60885;SDS011;46736;41.654;-8.438;2024-02-04T01:29:04;0.75;;;0.75;;
60885;SDS011;46736;41.654;-8.438;2024-02-04T01:31:06;0.80;;;0.80;;
60885;SDS011;46736;41.654;-8.438;2024-02-04T01:33:07;0.80;;;0.80;;
60885;SDS011;46736;41.654;-8.438;2024-02-04T01:35:08;0.70;;;0.70;;
60885;SDS011;46736;41.654;-8.438;2024-02-04T01:37:09;0.73;;;0.73;;
60885;SDS011;46736;41.654;-8.438;2024-02-04T01:39:10;0.80;;;0.80;;
60885;SDS011;46736;41.654;-8.438;2024-02-04T01:41:11;0.85;;;0.85;;
60885;SDS011;46736;41.654;-8.438;2024-02-04T01:43:11;0.80;;;0.80;;
60885;SDS011;46736;41.654;-8.438;2024-02-04T01:45:12;0.70;;;0.70;;
60885;SDS011;46736;41.654;-8.438;2024-02-04T01:47:13;0.75;;;0.75;;
60885;SDS011;46736;41.654;-8.438;2024-02-04T01:49:16;0.80;;;0.80;;
60885;SDS011;46736;41.654;-8.438;2024-02-04T01:51:17;0.80;;;0.80;;
60885;SDS011;46736;41.654;-8.438;2024-02-04T01:53:17;0.90;;;0.90;;
60885;SDS011;46736;41.654;-8.438;2024-02-04T01:55:20;0.70;;;0.70;;
60885;SDS011;46736;41.654;-8.438;2024-02-04T01:57:41;0.80;;;0.80;;
60885;SDS011;46736;41.654;-8.438;2024-02-04T01:59:42;0.82;;;0.82;;
60885;SDS011;46736;41.654;-8.438;2024-02-04T02:01:43;0.77;;;0.77;;
60885;SDS011;46736;41.654;-8.438;2024-02-04T02:06:14;0.80;;;0.80;;
60885;SDS011;46736;41.654;-8.438;2024-02-04T02:10:39;0.80;;;0.80;;
60885;SDS011;46736;41.654;-8.438;2024-02-04T02:15:10;0.80;;;0.80;;
60885;SDS011;46736;41.654;-8.438;2024-02-04T02:17:15;0.80;;;0.80;;
60885;SDS011;46736;41.654;-8.438;2024-02-04T02:21:44;0.80;;;0.80;;
60885;SDS011;46736;41.654;-8.438;2024-02-04T02:28:29;0.90;;;0.90;;
60885;SDS011;46736;41.654;-8.438;2024-02-04T02:30:30;0.90;;;0.90;;
60885;SDS011;46736;41.654;-8.438;2024-02-04T02:32:30;0.90;;;0.90;;
60885;SDS011;46736;41.654;-8.438;2024-02-04T02:34:32;0.90;;;0.90;;
60885;SDS011;46736;41.654;-8.438;2024-02-04T02:36:34;0.90;;;0.90;;
60885;SDS011;46736;41.654;-8.438;2024-02-04T02:41:03;0.90;;;0.90;;
60885;SDS011;46736;41.654;-8.438;2024-02-04T02:43:04;0.80;;;0.80;;
60885;SDS011;46736;41.654;-8.438;2024-02-04T02:45:05;1.00;;;1.00;;
60885;SDS011;46736;41.654;-8.438;2024-02-04T02:47:07;0.90;;;0.90;;
60885;SDS011;46736;41.654;-8.438;2024-02-04T02:49:08;0.90;;;0.90;;
60885;SDS011;46736;41.654;-8.438;2024-02-04T02:51:09;0.90;;;0.90;;
60885;SDS011;46736;41.654;-8.438;2024-02-04T02:53:09;0.90;;;0.90;;
60885;SDS011;46736;41.654;-8.438;2024-02-04T02:55:10;0.70;;;0.70;;
60885;SDS011;46736;41.654;-8.438;2024-02-04T02:57:10;0.90;;;0.90;;
60885;SDS011;46736;41.654;-8.438;2024-02-04T02:59:11;0.90;;;0.90;;
60885;SDS011;46736;41.654;-8.438;2024-02-04T03:01:12;0.90;;;0.90;;
60885;SDS011;46736;41.654;-8.438;2024-02-04T03:03:12;1.00;;;1.00;;
60885;SDS011;46736;41.654;-8.438;2024-02-04T03:05:15;0.80;;;0.80;;
60885;SDS011;46736;41.654;-8.438;2024-02-04T03:07:16;1.00;;;1.00;;
60885;SDS011;46736;41.654;-8.438;2024-02-04T03:09:16;0.90;;;0.90;;
60885;SDS011;46736;41.654;-8.438;2024-02-04T03:11:19;0.90;;;0.90;;
60885;SDS011;46736;41.654;-8.438;2024-02-04T03:15:43;0.90;;;0.90;;
60885;SDS011;46736;41.654;-8.438;2024-02-04T03:17:44;1.00;;;1.00;;
60885;SDS011;46736;41.654;-8.438;2024-02-04T03:19:45;0.93;;;0.93;;
60885;SDS011;46736;41.654;-8.438;2024-02-04T03:21:47;0.90;;;0.90;;
60885;SDS011;46736;41.654;-8.438;2024-02-04T03:23:49;1.00;;;1.00;;
60885;SDS011;46736;41.654;-8.438;2024-02-04T03:25:50;1.00;;;1.00;;
60885;SDS011;46736;41.654;-8.438;2024-02-04T03:27:50;0.90;;;0.90;;
60885;SDS011;46736;41.654;-8.438;2024-02-04T03:29:53;1.08;;;1.08;;
60885;SDS011;46736;41.654;-8.438;2024-02-04T03:31:55;1.00;;;1.00;;
60885;SDS011;46736;41.654;-8.438;2024-02-04T03:33:56;0.98;;;0.98;;
60885;SDS011;46736;41.654;-8.438;2024-02-04T03:35:56;1.10;;;1.10;;
60885;SDS011;46736;41.654;-8.438;2024-02-04T03:37:58;0.90;;;0.90;;
60885;SDS011;46736;41.654;-8.438;2024-02-04T03:39:58;0.82;;;0.82;;
60885;SDS011;46736;41.654;-8.438;2024-02-04T03:41:59;1.00;;;1.00;;
60885;SDS011;46736;41.654;-8.438;2024-02-04T03:44:00;1.00;;;1.00;;
60885;SDS011;46736;41.654;-8.438;2024-02-04T03:46:01;1.05;;;1.05;;
60885;SDS011;46736;41.654;-8.438;2024-02-04T03:48:02;0.90;;;0.90;;
60885;SDS011;46736;41.654;-8.438;2024-02-04T03:50:03;1.00;;;1.00;;
60885;SDS011;46736;41.654;-8.438;2024-02-04T03:54:28;1.00;;;1.00;;
60885;SDS011;46736;41.654;-8.438;2024-02-04T03:56:30;0.90;;;0.90;;
60885;SDS011;46736;41.654;-8.438;2024-02-04T03:58:32;0.93;;;0.93;;
60885;SDS011;46736;41.654;-8.438;2024-02-04T04:00:34;1.00;;;1.00;;
60885;SDS011;46736;41.654;-8.438;2024-02-04T04:02:34;0.90;;;0.90;;
60885;SDS011;46736;41.654;-8.438;2024-02-04T04:04:36;0.98;;;0.98;;
60885;SDS011;46736;41.654;-8.438;2024-02-04T04:06:36;0.90;;;0.90;;
60885;SDS011;46736;41.654;-8.438;2024-02-04T04:11:18;1.00;;;1.00;;
60885;SDS011;46736;41.654;-8.438;2024-02-04T04:13:20;0.90;;;0.90;;
60885;SDS011;46736;41.654;-8.438;2024-02-04T04:15:20;1.00;;;1.00;;
60885;SDS011;46736;41.654;-8.438;2024-02-04T04:19:44;1.00;;;1.00;;
60885;SDS011;46736;41.654;-8.438;2024-02-04T04:21:46;1.10;;;1.10;;
60885;SDS011;46736;41.654;-8.438;2024-02-04T04:23:50;1.00;;;1.00;;
60885;SDS011;46736;41.654;-8.438;2024-02-04T04:25:50;1.30;;;1.30;;
60885;SDS011;46736;41.654;-8.438;2024-02-04T04:27:51;1.00;;;1.00;;
60885;SDS011;46736;41.654;-8.438;2024-02-04T04:29:52;1.00;;;1.00;;
60885;SDS011;46736;41.654;-8.438;2024-02-04T04:31:52;1.00;;;1.00;;
60885;SDS011;46736;41.654;-8.438;2024-02-04T04:33:53;0.90;;;0.90;;
60885;SDS011;46736;41.654;-8.438;2024-02-04T04:35:54;0.90;;;0.90;;
60885;SDS011;46736;41.654;-8.438;2024-02-04T04:37:54;0.90;;;0.90;;
60885;SDS011;46736;41.654;-8.438;2024-02-04T04:39:55;1.00;;;1.00;;
60885;SDS011;46736;41.654;-8.438;2024-02-04T04:41:57;1.00;;;1.00;;
60885;SDS011;46736;41.654;-8.438;2024-02-04T04:43:58;0.80;;;0.80;;
60885;SDS011;46736;41.654;-8.438;2024-02-04T04:45:58;1.00;;;1.00;;
60885;SDS011;46736;41.654;-8.438;2024-02-04T04:48:01;1.10;;;1.10;;
60885;SDS011;46736;41.654;-8.438;2024-02-04T04:50:02;1.00;;;1.00;;
60885;SDS011;46736;41.654;-8.438;2024-02-04T04:52:03;1.17;;;1.17;;
60885;SDS011;46736;41.654;-8.438;2024-02-04T04:54:03;1.08;;;1.08;;
60885;SDS011;46736;41.654;-8.438;2024-02-04T04:56:04;1.00;;;1.00;;
60885;SDS011;46736;41.654;-8.438;2024-02-04T04:58:05;0.93;;;0.93;;
60885;SDS011;46736;41.654;-8.438;2024-02-04T05:00:05;1.10;;;1.10;;
60885;SDS011;46736;41.654;-8.438;2024-02-04T05:02:10;0.98;;;0.98;;
60885;SDS011;46736;41.654;-8.438;2024-02-04T05:04:12;0.90;;;0.90;;
60885;SDS011;46736;41.654;-8.438;2024-02-04T05:06:31;1.10;;;1.10;;
60885;SDS011;46736;41.654;-8.438;2024-02-04T05:08:31;0.90;;;0.90;;
60885;SDS011;46736;41.654;-8.438;2024-02-04T05:10:32;0.90;;;0.90;;
60885;SDS011;46736;41.654;-8.438;2024-02-04T05:12:33;1.00;;;1.00;;
60885;SDS011;46736;41.654;-8.438;2024-02-04T05:14:34;1.00;;;1.00;;
60885;SDS011;46736;41.654;-8.438;2024-02-04T05:16:34;1.00;;;1.00;;
60885;SDS011;46736;41.654;-8.438;2024-02-04T05:18:35;1.00;;;1.00;;
60885;SDS011;46736;41.654;-8.438;2024-02-04T05:20:36;1.00;;;1.00;;
60885;SDS011;46736;41.654;-8.438;2024-02-04T05:22:37;1.10;;;1.10;;
60885;SDS011;46736;41.654;-8.438;2024-02-04T05:24:38;1.10;;;1.10;;
60885;SDS011;46736;41.654;-8.438;2024-02-04T05:26:38;1.00;;;1.00;;
60885;SDS011;46736;41.654;-8.438;2024-02-04T05:28:39;0.90;;;0.90;;
60885;SDS011;46736;41.654;-8.438;2024-02-04T05:30:39;1.02;;;1.02;;
60885;SDS011;46736;41.654;-8.438;2024-02-04T05:32:40;0.80;;;0.80;;
60885;SDS011;46736;41.654;-8.438;2024-02-04T05:34:41;1.00;;;1.00;;
60885;SDS011;46736;41.654;-8.438;2024-02-04T05:36:42;1.00;;;1.00;;
60885;SDS011;46736;41.654;-8.438;2024-02-04T05:38:43;1.00;;;1.00;;
60885;SDS011;46736;41.654;-8.438;2024-02-04T05:40:44;0.90;;;0.90;;
60885;SDS011;46736;41.654;-8.438;2024-02-04T05:42:44;0.93;;;0.93;;
60885;SDS011;46736;41.654;-8.438;2024-02-04T05:44:45;1.00;;;1.00;;
60885;SDS011;46736;41.654;-8.438;2024-02-04T05:46:46;1.00;;;1.00;;
60885;SDS011;46736;41.654;-8.438;2024-02-04T05:48:46;1.10;;;1.10;;
60885;SDS011;46736;41.654;-8.438;2024-02-04T05:50:48;0.88;;;0.88;;
60885;SDS011;46736;41.654;-8.438;2024-02-04T05:52:48;1.10;;;1.10;;
60885;SDS011;46736;41.654;-8.438;2024-02-04T05:54:49;0.95;;;0.95;;
60885;SDS011;46736;41.654;-8.438;2024-02-04T05:56:50;1.00;;;1.00;;
60885;SDS011;46736;41.654;-8.438;2024-02-04T05:58:50;1.00;;;1.00;;
60885;SDS011;46736;41.654;-8.438;2024-02-04T06:00:51;0.90;;;0.90;;
60885;SDS011;46736;41.654;-8.438;2024-02-04T06:02:52;0.90;;;0.90;;
60885;SDS011;46736;41.654;-8.438;2024-02-04T06:04:52;1.10;;;1.10;;
60885;SDS011;46736;41.654;-8.438;2024-02-04T06:06:53;0.98;;;0.98;;
60885;SDS011;46736;41.654;-8.438;2024-02-04T06:08:53;1.00;;;1.00;;
60885;SDS011;46736;41.654;-8.438;2024-02-04T06:10:54;1.10;;;1.10;;
60885;SDS011;46736;41.654;-8.438;2024-02-04T06:12:54;1.00;;;1.00;;
60885;SDS011;46736;41.654;-8.438;2024-02-04T06:14:55;0.90;;;0.90;;
60885;SDS011;46736;41.654;-8.438;2024-02-04T06:16:55;1.00;;;1.00;;
60885;SDS011;46736;41.654;-8.438;2024-02-04T06:18:56;1.00;;;1.00;;
60885;SDS011;46736;41.654;-8.438;2024-02-04T06:20:58;1.17;;;1.17;;
60885;SDS011;46736;41.654;-8.438;2024-02-04T06:22:58;1.08;;;1.08;;
60885;SDS011;46736;41.654;-8.438;2024-02-04T06:24:59;1.10;;;1.10;;
60885;SDS011;46736;41.654;-8.438;2024-02-04T06:26:59;1.00;;;1.00;;
60885;SDS011;46736;41.654;-8.438;2024-02-04T06:29:00;1.05;;;1.05;;
60885;SDS011;46736;41.654;-8.438;2024-02-04T06:31:01;1.10;;;1.10;;
60885;SDS011;46736;41.654;-8.438;2024-02-04T06:33:01;1.10;;;1.10;;
60885;SDS011;46736;41.654;-8.438;2024-02-04T06:35:03;1.00;;;1.00;;
60885;SDS011;46736;41.654;-8.438;2024-02-04T06:37:04;0.90;;;0.90;;
60885;SDS011;46736;41.654;-8.438;2024-02-04T06:39:04;1.10;;;1.10;;
60885;SDS011;46736;41.654;-8.438;2024-02-04T06:41:07;1.08;;;1.08;;
60885;SDS011;46736;41.654;-8.438;2024-02-04T06:43:08;1.20;;;1.20;;
60885;SDS011;46736;41.654;-8.438;2024-02-04T06:45:08;1.15;;;1.15;;
60885;SDS011;46736;41.654;-8.438;2024-02-04T06:47:09;1.10;;;1.10;;
60885;SDS011;46736;41.654;-8.438;2024-02-04T06:49:12;0.90;;;0.90;;
60885;SDS011;46736;41.654;-8.438;2024-02-04T06:51:18;1.00;;;1.00;;
60885;SDS011;46736;41.654;-8.438;2024-02-04T06:53:18;1.00;;;1.00;;
60885;SDS011;46736;41.654;-8.438;2024-02-04T06:57:52;1.00;;;1.00;;
60885;SDS011;46736;41.654;-8.438;2024-02-04T06:59:53;1.10;;;1.10;;
60885;SDS011;46736;41.654;-8.438;2024-02-04T07:01:53;1.00;;;1.00;;
60885;SDS011;46736;41.654;-8.438;2024-02-04T07:03:54;1.10;;;1.10;;
60885;SDS011;46736;41.654;-8.438;2024-02-04T07:05:54;1.10;;;1.10;;
60885;SDS011;46736;41.654;-8.438;2024-02-04T07:07:55;1.00;;;1.00;;
60885;SDS011;46736;41.654;-8.438;2024-02-04T07:09:56;1.10;;;1.10;;
60885;SDS011;46736;41.654;-8.438;2024-02-04T07:11:58;1.00;;;1.00;;
60885;SDS011;46736;41.654;-8.438;2024-02-04T07:13:58;1.10;;;1.10;;
60885;SDS011;46736;41.654;-8.438;2024-02-04T07:16:00;1.00;;;1.00;;
60885;SDS011;46736;41.654;-8.438;2024-02-04T07:18:01;1.00;;;1.00;;
60885;SDS011;46736;41.654;-8.438;2024-02-04T07:20:02;0.95;;;0.95;;
60885;SDS011;46736;41.654;-8.438;2024-02-04T07:22:03;1.10;;;1.10;;
60885;SDS011;46736;41.654;-8.438;2024-02-04T07:24:03;1.10;;;1.10;;
60885;SDS011;46736;41.654;-8.438;2024-02-04T07:26:04;1.10;;;1.10;;
60885;SDS011;46736;41.654;-8.438;2024-02-04T07:28:05;1.05;;;1.05;;
60885;SDS011;46736;41.654;-8.438;2024-02-04T07:30:06;1.02;;;1.02;;
60885;SDS011;46736;41.654;-8.438;2024-02-04T07:32:06;1.00;;;1.00;;
60885;SDS011;46736;41.654;-8.438;2024-02-04T07:36:28;1.00;;;1.00;;
60885;SDS011;46736;41.654;-8.438;2024-02-04T07:38:28;1.00;;;1.00;;
60885;SDS011;46736;41.654;-8.438;2024-02-04T07:40:29;1.00;;;1.00;;
60885;SDS011;46736;41.654;-8.438;2024-02-04T07:42:30;0.93;;;0.93;;
60885;SDS011;46736;41.654;-8.438;2024-02-04T07:44:31;1.00;;;1.00;;
60885;SDS011;46736;41.654;-8.438;2024-02-04T07:46:31;1.00;;;1.00;;
60885;SDS011;46736;41.654;-8.438;2024-02-04T07:48:32;1.10;;;1.10;;
60885;SDS011;46736;41.654;-8.438;2024-02-04T07:50:32;0.93;;;0.93;;
60885;SDS011;46736;41.654;-8.438;2024-02-04T07:52:33;1.05;;;1.05;;
60885;SDS011;46736;41.654;-8.438;2024-02-04T07:54:34;1.10;;;1.10;;
60885;SDS011;46736;41.654;-8.438;2024-02-04T07:56:34;0.90;;;0.90;;
60885;SDS011;46736;41.654;-8.438;2024-02-04T07:58:35;1.10;;;1.10;;
60885;SDS011;46736;41.654;-8.438;2024-02-04T08:00:36;1.10;;;1.10;;
60885;SDS011;46736;41.654;-8.438;2024-02-04T08:02:37;1.10;;;1.10;;
60885;SDS011;46736;41.654;-8.438;2024-02-04T08:04:40;1.00;;;1.00;;
60885;SDS011;46736;41.654;-8.438;2024-02-04T08:06:41;1.00;;;1.00;;
60885;SDS011;46736;41.654;-8.438;2024-02-04T08:08:42;1.10;;;1.10;;
60885;SDS011;46736;41.654;-8.438;2024-02-04T08:10:44;1.10;;;1.10;;
60885;SDS011;46736;41.654;-8.438;2024-02-04T08:12:45;1.00;;;1.00;;
60885;SDS011;46736;41.654;-8.438;2024-02-04T08:15:05;0.93;;;0.93;;
60885;SDS011;46736;41.654;-8.438;2024-02-04T08:17:06;0.93;;;0.93;;
60885;SDS011;46736;41.654;-8.438;2024-02-04T08:19:07;1.00;;;1.00;;
60885;SDS011;46736;41.654;-8.438;2024-02-04T08:21:07;0.90;;;0.90;;
60885;SDS011;46736;41.654;-8.438;2024-02-04T08:23:08;1.10;;;1.10;;
60885;SDS011;46736;41.654;-8.438;2024-02-04T08:25:09;0.80;;;0.80;;
60885;SDS011;46736;41.654;-8.438;2024-02-04T08:27:11;0.90;;;0.90;;
60885;SDS011;46736;41.654;-8.438;2024-02-04T08:29:12;0.90;;;0.90;;
60885;SDS011;46736;41.654;-8.438;2024-02-04T08:31:13;0.90;;;0.90;;
60885;SDS011;46736;41.654;-8.438;2024-02-04T08:33:13;0.90;;;0.90;;
60885;SDS011;46736;41.654;-8.438;2024-02-04T08:35:14;1.00;;;1.00;;
60885;SDS011;46736;41.654;-8.438;2024-02-04T08:37:15;0.90;;;0.90;;
60885;SDS011;46736;41.654;-8.438;2024-02-04T08:39:15;0.90;;;0.90;;
60885;SDS011;46736;41.654;-8.438;2024-02-04T08:41:18;0.90;;;0.90;;
60885;SDS011;46736;41.654;-8.438;2024-02-04T08:43:19;0.90;;;0.90;;
60885;SDS011;46736;41.654;-8.438;2024-02-04T08:45:20;0.90;;;0.90;;
60885;SDS011;46736;41.654;-8.438;2024-02-04T08:49:30;0.80;;;0.80;;
60885;SDS011;46736;41.654;-8.438;2024-02-04T08:51:31;0.80;;;0.80;;
60885;SDS011;46736;41.654;-8.438;2024-02-04T08:53:32;0.70;;;0.70;;
60885;SDS011;46736;41.654;-8.438;2024-02-04T08:55:34;0.80;;;0.80;;
60885;SDS011;46736;41.654;-8.438;2024-02-04T08:57:34;0.70;;;0.70;;
60885;SDS011;46736;41.654;-8.438;2024-02-04T08:59:35;0.70;;;0.70;;
60885;SDS011;46736;41.654;-8.438;2024-02-04T09:01:36;0.70;;;0.70;;
60885;SDS011;46736;41.654;-8.438;2024-02-04T09:03:36;0.70;;;0.70;;
60885;SDS011;46736;41.654;-8.438;2024-02-04T09:05:37;0.70;;;0.70;;
60885;SDS011;46736;41.654;-8.438;2024-02-04T09:07:37;0.80;;;0.80;;
60885;SDS011;46736;41.654;-8.438;2024-02-04T09:09:39;0.80;;;0.80;;
60885;SDS011;46736;41.654;-8.438;2024-02-04T09:11:41;0.70;;;0.70;;
60885;SDS011;46736;41.654;-8.438;2024-02-04T09:13:42;0.60;;;0.60;;
60885;SDS011;46736;41.654;-8.438;2024-02-04T09:15:42;0.60;;;0.60;;
60885;SDS011;46736;41.654;-8.438;2024-02-04T09:17:44;0.70;;;0.70;;
60885;SDS011;46736;41.654;-8.438;2024-02-04T09:22:07;0.70;;;0.70;;
60885;SDS011;46736;41.654;-8.438;2024-02-04T09:24:08;0.70;;;0.70;;
60885;SDS011;46736;41.654;-8.438;2024-02-04T09:28:43;0.40;;;0.40;;
60885;SDS011;46736;41.654;-8.438;2024-02-04T09:30:44;0.30;;;0.30;;
60885;SDS011;46736;41.654;-8.438;2024-02-04T09:32:45;0.30;;;0.30;;
60885;SDS011;46736;41.654;-8.438;2024-02-04T09:34:47;0.30;;;0.30;;
60885;SDS011;46736;41.654;-8.438;2024-02-04T09:36:48;0.30;;;0.30;;
60885;SDS011;46736;41.654;-8.438;2024-02-04T09:38:48;0.30;;;0.30;;
60885;SDS011;46736;41.654;-8.438;2024-02-04T09:40:49;0.20;;;0.20;;
60885;SDS011;46736;41.654;-8.438;2024-02-04T09:42:49;0.30;;;0.30;;
60885;SDS011;46736;41.654;-8.438;2024-02-04T09:44:52;0.20;;;0.20;;
60885;SDS011;46736;41.654;-8.438;2024-02-04T09:46:53;0.20;;;0.20;;
60885;SDS011;46736;41.654;-8.438;2024-02-04T09:48:54;0.20;;;0.20;;
60885;SDS011;46736;41.654;-8.438;2024-02-04T09:50:55;0.20;;;0.20;;
60885;SDS011;46736;41.654;-8.438;2024-02-04T09:52:59;0.20;;;0.20;;
60885;SDS011;46736;41.654;-8.438;2024-02-04T09:55:04;0.20;;;0.20;;
60885;SDS011;46736;41.654;-8.438;2024-02-04T09:57:07;0.20;;;0.20;;
60885;SDS011;46736;41.654;-8.438;2024-02-04T09:59:10;0.20;;;0.20;;
60885;SDS011;46736;41.654;-8.438;2024-02-04T10:08:22;0.20;;;0.20;;
60885;SDS011;46736;41.654;-8.438;2024-02-04T10:10:50;0.10;;;0.10;;
60885;SDS011;46736;41.654;-8.438;2024-02-04T10:12:53;0.10;;;0.10;;
60885;SDS011;46736;41.654;-8.438;2024-02-04T10:14:54;0.10;;;0.10;;
60885;SDS011;46736;41.654;-8.438;2024-02-04T10:17:06;0.10;;;0.10;;
60885;SDS011;46736;41.654;-8.438;2024-02-04T10:19:52;0.10;;;0.10;;
60885;SDS011;46736;41.654;-8.438;2024-02-04T10:22:00;0.10;;;0.10;;
60885;SDS011;46736;41.654;-8.438;2024-02-04T10:24:01;0.10;;;0.10;;
60885;SDS011;46736;41.654;-8.438;2024-02-04T10:26:06;0.10;;;0.10;;
60885;SDS011;46736;41.654;-8.438;2024-02-04T10:28:10;0.10;;;0.10;;
60885;SDS011;46736;41.654;-8.438;2024-02-04T10:30:14;0.10;;;0.10;;
60885;SDS011;46736;41.654;-8.438;2024-02-04T10:32:15;0.10;;;0.10;;
60885;SDS011;46736;41.654;-8.438;2024-02-04T10:34:22;0.10;;;0.10;;
60885;SDS011;46736;41.654;-8.438;2024-02-04T10:36:33;0.10;;;0.10;;
60885;SDS011;46736;41.654;-8.438;2024-02-04T10:38:35;0.10;;;0.10;;
60885;SDS011;46736;41.654;-8.438;2024-02-04T10:40:42;0.10;;;0.10;;
60885;SDS011;46736;41.654;-8.438;2024-02-04T10:42:55;0.10;;;0.10;;
60885;SDS011;46736;41.654;-8.438;2024-02-04T10:45:18;0.10;;;0.10;;
60885;SDS011;46736;41.654;-8.438;2024-02-04T10:47:29;0.10;;;0.10;;
60885;SDS011;46736;41.654;-8.438;2024-02-04T10:52:17;0.10;;;0.10;;
60885;SDS011;46736;41.654;-8.438;2024-02-04T10:54:51;0.10;;;0.10;;
60885;SDS011;46736;41.654;-8.438;2024-02-04T10:56:55;0.10;;;0.10;;
60885;SDS011;46736;41.654;-8.438;2024-02-04T10:58:58;0.10;;;0.10;;
60885;SDS011;46736;41.654;-8.438;2024-02-04T11:01:02;0.10;;;0.10;;
60885;SDS011;46736;41.654;-8.438;2024-02-04T11:03:10;0.10;;;0.10;;
60885;SDS011;46736;41.654;-8.438;2024-02-04T11:05:12;0.10;;;0.10;;
60885;SDS011;46736;41.654;-8.438;2024-02-04T11:24:09;0.10;;;0.10;;
60885;SDS011;46736;41.654;-8.438;2024-02-04T11:26:22;0.10;;;0.10;;
60885;SDS011;46736;41.654;-8.438;2024-02-04T12:00:50;0.10;;;0.10;;
60885;SDS011;46736;41.654;-8.438;2024-02-04T12:03:06;0.10;;;0.10;;
60885;SDS011;46736;41.654;-8.438;2024-02-04T12:05:09;0.00;;;0.00;;
60885;SDS011;46736;41.654;-8.438;2024-02-04T12:07:10;0.10;;;0.10;;
60885;SDS011;46736;41.654;-8.438;2024-02-04T12:09:16;0.10;;;0.10;;
60885;SDS011;46736;41.654;-8.438;2024-02-04T12:11:20;0.00;;;0.00;;
60885;SDS011;46736;41.654;-8.438;2024-02-04T12:13:23;0.10;;;0.10;;
60885;SDS011;46736;41.654;-8.438;2024-02-04T12:15:24;0.05;;;0.05;;
60885;SDS011;46736;41.654;-8.438;2024-02-04T12:17:25;0.10;;;0.10;;
60885;SDS011;46736;41.654;-8.438;2024-02-04T12:19:26;0.00;;;0.00;;
60885;SDS011;46736;41.654;-8.438;2024-02-04T14:52:16;0.20;;;0.20;;
60885;SDS011;46736;41.654;-8.438;2024-02-04T14:59:34;0.30;;;0.30;;
60885;SDS011;46736;41.654;-8.438;2024-02-04T15:01:38;0.20;;;0.20;;
60885;SDS011;46736;41.654;-8.438;2024-02-04T15:25:08;0.30;;;0.30;;
60885;SDS011;46736;41.654;-8.438;2024-02-04T15:27:13;0.30;;;0.30;;
60885;SDS011;46736;41.654;-8.438;2024-02-04T15:45:48;0.30;;;0.30;;
60885;SDS011;46736;41.654;-8.438;2024-02-04T15:47:50;0.30;;;0.30;;
60885;SDS011;46736;41.654;-8.438;2024-02-04T15:49:52;0.30;;;0.30;;
60885;SDS011;46736;41.654;-8.438;2024-02-04T16:04:11;0.30;;;0.30;;
60885;SDS011;46736;41.654;-8.438;2024-02-04T16:06:13;0.30;;;0.30;;
60885;SDS011;46736;41.654;-8.438;2024-02-04T16:08:13;0.40;;;0.40;;
60885;SDS011;46736;41.654;-8.438;2024-02-04T16:34:23;0.30;;;0.30;;
60885;SDS011;46736;41.654;-8.438;2024-02-04T16:46:28;0.30;;;0.30;;
60885;SDS011;46736;41.654;-8.438;2024-02-04T16:48:29;0.35;;;0.35;;
60885;SDS011;46736;41.654;-8.438;2024-02-04T17:00:15;0.30;;;0.30;;
60885;SDS011;46736;41.654;-8.438;2024-02-04T17:02:16;0.30;;;0.30;;
60885;SDS011;46736;41.654;-8.438;2024-02-04T17:06:46;0.30;;;0.30;;
60885;SDS011;46736;41.654;-8.438;2024-02-04T17:08:47;0.30;;;0.30;;
60885;SDS011;46736;41.654;-8.438;2024-02-04T17:13:06;0.28;;;0.28;;
60885;SDS011;46736;41.654;-8.438;2024-02-04T17:15:07;0.30;;;0.30;;
60885;SDS011;46736;41.654;-8.438;2024-02-04T17:17:11;0.40;;;0.40;;
60885;SDS011;46736;41.654;-8.438;2024-02-04T17:19:16;0.30;;;0.30;;
60885;SDS011;46736;41.654;-8.438;2024-02-04T17:21:21;0.30;;;0.30;;
60885;SDS011;46736;41.654;-8.438;2024-02-04T17:23:25;0.30;;;0.30;;
60885;SDS011;46736;41.654;-8.438;2024-02-04T17:25:30;0.30;;;0.30;;
60885;SDS011;46736;41.654;-8.438;2024-02-04T17:27:31;0.40;;;0.40;;
60885;SDS011;46736;41.654;-8.438;2024-02-04T17:29:32;0.40;;;0.40;;
60885;SDS011;46736;41.654;-8.438;2024-02-04T17:31:32;0.38;;;0.38;;
60885;SDS011;46736;41.654;-8.438;2024-02-04T17:35:41;0.38;;;0.38;;
60885;SDS011;46736;41.654;-8.438;2024-02-04T17:37:43;0.30;;;0.30;;
60885;SDS011;46736;41.654;-8.438;2024-02-04T17:39:44;0.30;;;0.30;;
60885;SDS011;46736;41.654;-8.438;2024-02-04T17:41:45;0.30;;;0.30;;
60885;SDS011;46736;41.654;-8.438;2024-02-04T17:43:45;0.30;;;0.30;;
60885;SDS011;46736;41.654;-8.438;2024-02-04T17:45:47;0.30;;;0.30;;
60885;SDS011;46736;41.654;-8.438;2024-02-04T17:47:47;0.30;;;0.30;;
60885;SDS011;46736;41.654;-8.438;2024-02-04T17:52:13;0.40;;;0.40;;
60885;SDS011;46736;41.654;-8.438;2024-02-04T17:54:13;0.40;;;0.40;;
60885;SDS011;46736;41.654;-8.438;2024-02-04T17:56:14;0.30;;;0.30;;
60885;SDS011;46736;41.654;-8.438;2024-02-04T17:58:17;0.30;;;0.30;;
60885;SDS011;46736;41.654;-8.438;2024-02-04T18:00:20;0.30;;;0.30;;
60885;SDS011;46736;41.654;-8.438;2024-02-04T18:02:20;0.40;;;0.40;;
60885;SDS011;46736;41.654;-8.438;2024-02-04T18:04:23;0.40;;;0.40;;
60885;SDS011;46736;41.654;-8.438;2024-02-04T18:06:24;0.30;;;0.30;;
60885;SDS011;46736;41.654;-8.438;2024-02-04T18:08:28;0.40;;;0.40;;
60885;SDS011;46736;41.654;-8.438;2024-02-04T18:10:29;0.40;;;0.40;;
60885;SDS011;46736;41.654;-8.438;2024-02-04T18:12:30;0.30;;;0.30;;
60885;SDS011;46736;41.654;-8.438;2024-02-04T18:14:33;0.40;;;0.40;;